createdAt,value
2024-04-10T00:00:34.126Z,98752.22
2024-04-10T00:03:25.670Z,98759.59
2024-04-10T00:06:06.076Z,98760.84
2024-04-10T00:08:39.494Z,98762.64
2024-04-10T00:11:11.162Z,98764.02
2024-04-10T00:13:43.052Z,98762.59
2024-04-10T00:16:14.594Z,98764.73
2024-04-10T00:18:47.333Z,98769.30
2024-04-10T00:21:21.127Z,98771.91
2024-04-10T00:23:52.560Z,98780.80
2024-04-10T00:26:24.114Z,98788.77
2024-04-10T00:28:56.150Z,98795.19
2024-04-10T00:31:28.859Z,98798.14
2024-04-10T00:34:00.452Z,98808.63
2024-04-10T00:36:32.180Z,98813.63
2024-04-10T00:39:03.523Z,98816.56
2024-04-10T00:41:34.880Z,98819.88
2024-04-10T00:44:06.850Z,98824.75
2024-04-10T00:46:38.397Z,98830.59
2024-04-10T00:49:11.020Z,98834.70
2024-04-10T00:51:43.762Z,98840.66
2024-04-10T00:54:15.963Z,98843.10
2024-04-10T00:56:47.606Z,98855.54
2024-04-10T00:59:19.550Z,98860.52
2024-04-10T01:01:51.442Z,98871.75
2024-04-10T01:04:22.810Z,98883.48
2024-04-10T01:06:54.753Z,98885.08
2024-04-10T01:09:26.307Z,98899.61
2024-04-10T01:11:58.193Z,98904.59
2024-04-10T01:14:30.938Z,98903.65
2024-04-10T01:17:02.735Z,98901.57
2024-04-10T01:19:34.990Z,98899.64
2024-04-10T01:22:07.576Z,98905.90
2024-04-10T01:24:39.138Z,98918.54
2024-04-10T01:27:10.684Z,98922.83
2024-04-10T01:29:43.066Z,98935.98
2024-04-10T01:32:14.701Z,98936.25
2024-04-10T01:34:46.341Z,98940.28
2024-04-10T01:37:18.348Z,98949.15
2024-04-10T01:39:49.717Z,98959.04
2024-04-10T01:42:22.489Z,98962.35
2024-04-10T01:44:54.040Z,98966.46
2024-04-10T01:47:25.755Z,98977.63
2024-04-10T01:49:57.599Z,98983.17
2024-04-10T01:52:29.134Z,98987.94
2024-04-10T01:55:00.686Z,98994.38
2024-04-10T01:57:32.439Z,98995.83
2024-04-10T02:00:04.206Z,99003.03
2024-04-10T02:02:36.480Z,99001.29
2024-04-10T02:05:09.354Z,99007.44
2024-04-10T02:07:41.961Z,99014.10
2024-04-10T02:10:13.331Z,99017.06
2024-04-10T02:12:44.853Z,99018.73
2024-04-10T02:15:16.432Z,99027.09
2024-04-10T02:17:48.042Z,99031.02
2024-04-10T02:20:19.782Z,99038.19
2024-04-10T02:22:51.933Z,99049.61
2024-04-10T02:25:23.219Z,99053.52
2024-04-10T02:27:53.178Z,99059.73
2024-04-10T02:30:24.317Z,99060.83
2024-04-10T02:32:56.182Z,99058.19
2024-04-10T02:35:29.306Z,99065.80
2024-04-10T02:38:00.862Z,99070.58
2024-04-10T02:40:34.029Z,99064.27
2024-04-10T02:43:06.659Z,99075.34
2024-04-10T02:45:38.202Z,99083.01
2024-04-10T02:48:10.404Z,99088.89
2024-04-10T02:50:41.924Z,99094.58
2024-04-10T02:53:13.469Z,99092.92
2024-04-10T02:55:46.804Z,99101.42
2024-04-10T02:58:19.634Z,99105.21
2024-04-10T03:00:52.724Z,99111.33
2024-04-10T03:03:26.384Z,99124.40
2024-04-10T03:06:04.790Z,99128.27
2024-04-10T03:08:36.694Z,99136.98
2024-04-10T03:11:09.300Z,99138.41
2024-04-10T03:13:43.707Z,99153.06
2024-04-10T03:16:15.180Z,99164.64
2024-04-10T03:18:46.674Z,99161.16
2024-04-10T03:21:18.080Z,99164.31
2024-04-10T03:23:50.057Z,99168.75
2024-04-10T03:26:21.614Z,99180.80
2024-04-10T03:28:52.981Z,99185.55
2024-04-10T03:31:24.770Z,99187.41
2024-04-10T03:33:56.246Z,99198.56
2024-04-10T03:36:27.719Z,99197.30
2024-04-10T03:38:59.080Z,99203.63
2024-04-10T03:41:30.580Z,99209.55
2024-04-10T03:44:02.094Z,99215.29
2024-04-10T03:46:33.610Z,99213.83
2024-04-10T03:49:05.081Z,99218.05
2024-04-10T03:51:36.508Z,99222.32
2024-04-10T03:54:07.892Z,99240.05
2024-04-10T03:56:39.446Z,99247.29
2024-04-10T03:59:10.861Z,99254.48
2024-04-10T04:01:42.298Z,99259.90
2024-04-10T04:04:13.757Z,99261.09
2024-04-10T04:06:45.774Z,99267.64
2024-04-10T04:09:17.193Z,99276.17
2024-04-10T04:11:48.568Z,99281.36
2024-04-10T04:14:20.241Z,99285.73
2024-04-10T04:16:51.646Z,99291.61
2024-04-10T04:19:23.160Z,99291.55
2024-04-10T04:21:54.491Z,99293.95
2024-04-10T04:24:27.558Z,99299.82
2024-04-10T04:26:58.914Z,99304.17
2024-04-10T04:29:30.799Z,99306.73
2024-04-10T04:32:02.622Z,99316.52
2024-04-10T04:34:34.017Z,99319.17
2024-04-10T04:37:06.626Z,99319.91
2024-04-10T04:39:37.985Z,99322.52
2024-04-10T04:42:09.912Z,99330.33
2024-04-10T04:44:41.293Z,99332.14
2024-04-10T04:47:12.926Z,99341.36
2024-04-10T04:49:44.438Z,99347.57
2024-04-10T04:52:15.768Z,99355.36
2024-04-10T04:54:47.178Z,99358.93
2024-04-10T04:57:19.904Z,99360.78
2024-04-10T04:59:51.215Z,99362.08
2024-04-10T05:02:22.949Z,99374.79
2024-04-10T05:04:59.005Z,99385.11
2024-04-10T05:07:30.380Z,99391.33
2024-04-10T05:10:00.362Z,99398.02
2024-04-10T05:12:31.841Z,99406.59
2024-04-10T05:15:03.358Z,99413.70
2024-04-10T05:17:34.940Z,99413.73
2024-04-10T05:20:10.217Z,99414.84
2024-04-10T05:22:42.333Z,99419.38
2024-04-10T05:25:14.441Z,99426.91
2024-04-10T05:27:45.844Z,99431.10
2024-04-10T05:30:17.559Z,99435.82
2024-04-10T05:32:49.249Z,99440.73
2024-04-10T05:35:20.959Z,99448.50
2024-04-10T05:37:52.390Z,99450.25
2024-04-10T05:40:23.901Z,99455.73
2024-04-10T05:42:55.270Z,99464.57
2024-04-10T05:45:26.746Z,99471.14
2024-04-10T05:47:58.253Z,99465.35
2024-04-10T05:50:29.643Z,99475.14
2024-04-10T05:53:00.529Z,99482.31
2024-04-10T05:55:33.895Z,99486.64
2024-04-10T05:58:06.023Z,99495.21
2024-04-10T06:00:39.104Z,99497.35
2024-04-10T06:03:10.604Z,99507.48
2024-04-10T06:05:43.035Z,99508.53
2024-04-10T06:08:14.492Z,99517.63
2024-04-10T06:10:52.326Z,99521.91
2024-04-10T06:13:23.742Z,99534.22
2024-04-10T06:16:02.033Z,99538.34
2024-04-10T06:18:34.957Z,99538.80
2024-04-10T06:21:08.957Z,99547.16
2024-04-10T06:23:44.376Z,99549.91
2024-04-10T06:26:16.387Z,99555.97
2024-04-10T06:28:47.726Z,99562.48
2024-04-10T06:31:19.077Z,99567.77
2024-04-10T06:33:49.632Z,99577.59
2024-04-10T06:36:21.179Z,99578.39
2024-04-10T06:38:52.628Z,99584.94
2024-04-10T06:41:24.191Z,99590.00
2024-04-10T06:43:55.734Z,99593.64
2024-04-10T06:46:25.644Z,99597.02
2024-04-10T06:48:57.196Z,99608.05
2024-04-10T06:51:28.817Z,99618.05
2024-04-10T06:54:00.388Z,99628.13
2024-04-10T06:56:33.238Z,99635.20
2024-04-10T06:59:04.962Z,99639.28
2024-04-10T07:01:37.292Z,99641.54
2024-04-10T07:04:09.099Z,99649.88
2024-04-10T07:06:40.609Z,99654.78
2024-04-10T07:09:12.574Z,99659.27
2024-04-10T07:11:44.253Z,99657.80
2024-04-10T07:14:15.905Z,99657.98
2024-04-10T07:16:47.720Z,99660.88
2024-04-10T07:19:19.202Z,99658.01
2024-04-10T07:21:50.761Z,99659.88
2024-04-10T07:24:22.319Z,99654.85
2024-04-10T07:26:54.113Z,99657.45
2024-04-10T07:29:25.689Z,99659.65
2024-04-10T07:31:57.109Z,99665.64
2024-04-10T07:34:27.284Z,99667.31
2024-04-10T07:36:58.675Z,99668.95
2024-04-10T07:39:28.507Z,99668.70
2024-04-10T07:41:59.839Z,99673.29
2024-04-10T07:44:31.198Z,99677.53
2024-04-10T07:47:04.826Z,99679.04
2024-04-10T07:49:36.416Z,99684.53
2024-04-10T07:52:09.448Z,99690.27
2024-04-10T07:54:40.774Z,99702.23
2024-04-10T07:57:12.214Z,99698.33
2024-04-10T07:59:43.631Z,99712.81
2024-04-10T08:02:15.060Z,99716.98
2024-04-10T08:04:46.556Z,99717.67
2024-04-10T08:07:18.388Z,99716.33
2024-04-10T08:09:49.802Z,99722.20
2024-04-10T08:12:21.510Z,99727.70
2024-04-10T08:14:55.417Z,99738.15
2024-04-10T08:17:27.308Z,99738.70
2024-04-10T08:19:59.245Z,99746.05
2024-04-10T08:22:30.558Z,99749.83
2024-04-10T08:25:00.384Z,99756.42
2024-04-10T08:27:32.210Z,99760.02
2024-04-10T08:30:03.645Z,99759.84
2024-04-10T08:32:37.215Z,99756.88
2024-04-10T08:35:09.764Z,99759.40
2024-04-10T08:37:41.252Z,99764.61
2024-04-10T08:40:13.526Z,99762.95
2024-04-10T08:42:49.777Z,99771.68
2024-04-10T08:45:27.654Z,99778.95
2024-04-10T08:48:01.257Z,99783.39
2024-04-10T08:50:38.045Z,99788.84
2024-04-10T08:53:11.418Z,99786.13
2024-04-10T08:55:54.751Z,99791.95
2024-04-10T08:58:34.604Z,99797.12
2024-04-10T09:01:07.340Z,99800.63
2024-04-10T09:03:39.826Z,99808.61
2024-04-10T09:06:11.702Z,99807.27
2024-04-10T09:08:43.009Z,99811.60
2024-04-10T09:11:14.412Z,99816.61
2024-04-10T09:13:45.864Z,99825.71
2024-04-10T09:16:24.416Z,99830.98
2024-04-10T09:18:55.935Z,99842.93
2024-04-10T09:21:27.380Z,99841.74
2024-04-10T09:24:06.774Z,99839.79
2024-04-10T09:26:42.727Z,99837.89
2024-04-10T09:29:17.617Z,99840.80
2024-04-10T09:31:52.935Z,99838.21
2024-04-10T09:34:24.638Z,99848.52
2024-04-10T09:36:56.309Z,99848.52
2024-04-10T09:39:30.849Z,99861.09
2024-04-10T09:42:03.394Z,99861.45
2024-04-10T09:44:37.785Z,99862.50
2024-04-10T09:47:16.080Z,99868.44
2024-04-10T09:49:51.069Z,99862.39
2024-04-10T09:52:22.545Z,99866.05
2024-04-10T09:54:54.995Z,99863.98
2024-04-10T09:57:28.719Z,99868.13
2024-04-10T10:00:03.201Z,99866.28
2024-04-10T10:02:35.386Z,99860.66
2024-04-10T10:05:07.486Z,99858.32
2024-04-10T10:07:38.798Z,99863.64
2024-04-10T10:10:11.785Z,99864.96
2024-04-10T10:12:43.155Z,99868.14
2024-04-10T10:15:16.214Z,99871.59
2024-04-10T10:18:01.174Z,99875.16
2024-04-10T10:20:36.369Z,99878.23
2024-04-10T10:23:11.405Z,99878.14
2024-04-10T10:25:45.692Z,99884.14
2024-04-10T10:28:18.201Z,99890.55
2024-04-10T10:30:52.691Z,99891.52
2024-04-10T10:33:24.306Z,99903.66
2024-04-10T10:36:02.318Z,99906.14
2024-04-10T10:38:33.776Z,99908.54
2024-04-10T10:41:18.324Z,99919.11
2024-04-10T10:44:02.089Z,99924.55
2024-04-10T10:46:35.733Z,99921.41
2024-04-10T10:49:07.167Z,99926.20
2024-04-10T10:51:38.735Z,99932.77
2024-04-10T10:54:10.876Z,99937.84
2024-04-10T10:56:42.192Z,99939.73
2024-04-10T10:59:15.498Z,99942.70
2024-04-10T11:01:46.985Z,99943.52
2024-04-10T11:04:18.920Z,99944.23
2024-04-10T11:06:50.669Z,99942.88
2024-04-10T11:09:23.823Z,99952.20
2024-04-10T11:12:05.374Z,99957.40
2024-04-10T11:14:36.915Z,99960.87
2024-04-10T11:17:17.309Z,99961.89
2024-04-10T11:19:52.758Z,99976.73
2024-04-10T11:22:26.483Z,99981.99
2024-04-10T11:24:57.826Z,99988.69
2024-04-10T11:27:29.798Z,99989.03
2024-04-10T11:30:01.310Z,99989.21
2024-04-10T11:32:33.567Z,99995.53
2024-04-10T11:35:05.479Z,100004.71
2024-04-10T11:37:36.889Z,100010.73
2024-04-10T11:40:13.847Z,100009.80
2024-04-10T11:42:45.414Z,100007.79
2024-04-10T11:45:17.313Z,100008.66
2024-04-10T11:47:50.889Z,100017.31
2024-04-10T11:50:22.531Z,100017.83
2024-04-10T11:52:54.072Z,100024.14
2024-04-10T11:55:26.721Z,100023.46
2024-04-10T11:57:58.116Z,100031.06
2024-04-10T12:00:29.477Z,100031.80
2024-04-10T12:03:00.887Z,100038.98
2024-04-10T12:05:34.011Z,100046.77
2024-04-10T12:08:07.728Z,100050.40
2024-04-10T12:10:40.780Z,100047.29
2024-04-10T12:13:12.162Z,100051.67
2024-04-10T12:15:43.560Z,100054.45
2024-04-10T12:18:14.950Z,100056.05
2024-04-10T12:20:47.504Z,100056.02
2024-04-10T12:23:18.949Z,100058.44
2024-04-10T12:25:51.226Z,100058.16
2024-04-10T12:28:22.547Z,100066.23
2024-04-10T12:30:55.370Z,100069.75
2024-04-10T12:33:30.077Z,100072.84
2024-04-10T12:36:20.408Z,100080.38
2024-04-10T12:38:52.453Z,100081.34
2024-04-10T12:41:23.887Z,100083.04
2024-04-10T12:43:56.404Z,100089.95
2024-04-10T12:46:29.387Z,100087.59
2024-04-10T12:49:01.079Z,100089.76
2024-04-10T12:51:34.112Z,100086.52
2024-04-10T12:54:05.563Z,100093.96
2024-04-10T12:56:37.027Z,100090.24
2024-04-10T12:59:11.529Z,100094.16
2024-04-10T13:01:43.082Z,100099.75
2024-04-10T13:04:14.737Z,100097.12
2024-04-10T13:06:48.427Z,100095.69
2024-04-10T13:09:21.538Z,100094.17
2024-04-10T13:11:53.052Z,100092.85
2024-04-10T13:14:24.502Z,100096.50
2024-04-10T13:16:55.936Z,100095.65
2024-04-10T13:19:29.177Z,100099.46
2024-04-10T13:22:00.530Z,100093.77
2024-04-10T13:24:32.418Z,100099.46
2024-04-10T13:27:04.820Z,100100.20
2024-04-10T13:29:36.197Z,100098.98
2024-04-10T13:32:09.514Z,100091.83
2024-04-10T13:34:41.995Z,100090.86
2024-04-10T13:37:26.135Z,100099.49
2024-04-10T13:40:02.966Z,100094.52
2024-04-10T13:42:34.325Z,100099.41
2024-04-10T13:45:06.643Z,100102.89
2024-04-10T13:47:38.175Z,100101.71
2024-04-10T13:50:10.490Z,100104.44
2024-04-10T13:52:41.877Z,100103.46
2024-04-10T13:55:13.271Z,100109.67
2024-04-10T13:57:44.696Z,100112.33
2024-04-10T14:00:18.800Z,100113.23
2024-04-10T14:02:50.408Z,100113.64
2024-04-10T14:05:22.108Z,100115.94
2024-04-10T14:07:54.373Z,100116.29
2024-04-10T14:10:29.114Z,100116.65
2024-04-10T14:13:00.459Z,100117.27
2024-04-10T14:15:31.855Z,100120.02
2024-04-10T14:18:03.275Z,100121.86
2024-04-10T14:20:35.528Z,100123.88
2024-04-10T14:23:10.094Z,100119.75
2024-04-10T14:25:41.697Z,100121.65
2024-04-10T14:28:12.991Z,100127.11
2024-04-10T14:30:54.841Z,100125.64
2024-04-10T14:33:26.314Z,100132.66
2024-04-10T14:35:58.772Z,100137.02
2024-04-10T14:38:30.605Z,100132.04
2024-04-10T14:41:03.250Z,100129.59
2024-04-10T14:43:36.985Z,100139.99
2024-04-10T14:46:16.902Z,100142.29
2024-04-10T14:48:51.298Z,100145.81
2024-04-10T14:51:24.500Z,100147.25
2024-04-10T14:53:55.836Z,100153.87
2024-04-10T14:56:29.528Z,100157.92
2024-04-10T14:59:01.066Z,100160.64
2024-04-10T15:01:32.828Z,100168.98
2024-04-10T15:04:04.512Z,100169.63
2024-04-10T15:06:36.083Z,100170.50
2024-04-10T15:09:07.524Z,100170.90
2024-04-10T15:11:39.153Z,100165.46
2024-04-10T15:14:10.673Z,100172.46
2024-04-10T15:16:42.197Z,100178.26
2024-04-10T15:19:13.625Z,100181.27
2024-04-10T15:21:45.102Z,100184.66
2024-04-10T15:24:17.275Z,100179.48
2024-04-10T15:26:48.916Z,100181.55
2024-04-10T15:29:20.252Z,100189.39
2024-04-10T15:31:51.791Z,100193.66
2024-04-10T15:34:23.562Z,100201.13
2024-04-10T15:36:58.052Z,100203.98
2024-04-10T15:39:31.649Z,100201.01
2024-04-10T15:42:03.851Z,100210.86
2024-04-10T15:44:35.611Z,100209.34
2024-04-10T15:47:08.092Z,100210.59
2024-04-10T15:49:41.430Z,100214.03
2024-04-10T15:52:30.834Z,100215.61
2024-04-10T15:55:08.032Z,100221.23
2024-04-10T15:57:39.501Z,100221.70
2024-04-10T16:00:14.063Z,100221.91
2024-04-10T16:02:48.821Z,100230.98
2024-04-10T16:05:20.624Z,100229.69
2024-04-10T16:07:52.482Z,100241.83
2024-04-10T16:10:23.760Z,100248.17
2024-04-10T16:12:55.389Z,100241.02
2024-04-10T16:15:28.095Z,100248.33
2024-04-10T16:17:59.994Z,100247.91
2024-04-10T16:20:31.743Z,100249.52
2024-04-10T16:23:03.261Z,100253.19
2024-04-10T16:25:34.816Z,100253.66
2024-04-10T16:28:08.060Z,100250.72
2024-04-10T16:30:42.651Z,100254.95
2024-04-10T16:33:14.419Z,100258.95
2024-04-10T16:35:47.125Z,100259.89
2024-04-10T16:38:19.397Z,100259.36
2024-04-10T16:40:58.691Z,100258.26
2024-04-10T16:43:32.613Z,100259.89
2024-04-10T16:46:09.316Z,100262.75
2024-04-10T16:48:41.327Z,100263.48
2024-04-10T16:51:13.282Z,100265.20
2024-04-10T16:53:45.750Z,100273.48
2024-04-10T16:56:21.621Z,100274.33
2024-04-10T16:58:53.143Z,100274.73
2024-04-10T17:01:24.720Z,100274.98
2024-04-10T17:03:56.440Z,100278.90
2024-04-10T17:06:28.435Z,100280.42
2024-04-10T17:09:00.022Z,100286.27
2024-04-10T17:11:31.776Z,100292.98
2024-04-10T17:14:03.466Z,100297.64
2024-04-10T17:16:35.130Z,100299.18
2024-04-10T17:19:26.745Z,100298.05
2024-04-10T17:22:00.856Z,100304.67
2024-04-10T17:24:34.070Z,100306.73
2024-04-10T17:27:06.792Z,100309.60
2024-04-10T17:29:38.447Z,100311.65
2024-04-10T17:32:10.388Z,100317.84
2024-04-10T17:34:42.825Z,100324.73
2024-04-10T17:37:14.723Z,100327.14
2024-04-10T17:39:46.705Z,100329.33
2024-04-10T17:42:18.243Z,100331.96
2024-04-10T17:44:50.672Z,100341.06
2024-04-10T17:47:22.409Z,100347.08
2024-04-10T17:49:54.344Z,100355.31
2024-04-10T17:52:25.917Z,100355.14
2024-04-10T17:54:58.815Z,100361.31
2024-04-10T17:57:30.246Z,100364.34
2024-04-10T18:00:02.022Z,100366.86
2024-04-10T18:02:35.867Z,100373.81
2024-04-10T18:05:08.579Z,100378.45
2024-04-10T18:07:40.160Z,100383.38
2024-04-10T18:10:11.959Z,100388.46
2024-04-10T18:12:43.475Z,100390.41
2024-04-10T18:15:15.226Z,100392.58
2024-04-10T18:17:47.017Z,100395.77
2024-04-10T18:20:18.810Z,100398.55
2024-04-10T18:22:51.255Z,100405.37
2024-04-10T18:25:23.716Z,100410.63
2024-04-10T18:27:55.269Z,100408.17
2024-04-10T18:30:26.832Z,100415.61
2024-04-10T18:32:58.917Z,100418.98
2024-04-10T18:35:30.364Z,100422.27
2024-04-10T18:38:00.270Z,100429.59
2024-04-10T18:40:32.252Z,100432.61
2024-04-10T18:43:04.516Z,100437.21
2024-04-10T18:45:37.395Z,100438.60
2024-04-10T18:48:10.429Z,100438.52
2024-04-10T18:50:42.771Z,100440.56
2024-04-10T18:53:14.055Z,100443.15
2024-04-10T18:55:58.791Z,100448.86
2024-04-10T18:58:30.812Z,100455.57
2024-04-10T19:01:05.098Z,100460.48
2024-04-10T19:03:39.778Z,100460.71
2024-04-10T19:06:14.789Z,100466.64
2024-04-10T19:08:46.855Z,100469.27
2024-04-10T19:11:19.443Z,100470.48
2024-04-10T19:13:52.384Z,100474.78
2024-04-10T19:16:23.969Z,100478.83
2024-04-10T19:18:55.623Z,100479.42
2024-04-10T19:21:27.250Z,100478.42
2024-04-10T19:23:58.850Z,100481.15
2024-04-10T19:26:30.618Z,100487.40
2024-04-10T19:29:02.266Z,100489.95
2024-04-10T19:31:33.690Z,100490.84
2024-04-10T19:34:05.451Z,100496.52
2024-04-10T19:36:36.999Z,100501.54
2024-04-10T19:39:10.297Z,100506.94
2024-04-10T19:41:42.601Z,100508.46
2024-04-10T19:44:14.134Z,100512.63
2024-04-10T19:46:47.203Z,100514.58
2024-04-10T19:49:19.210Z,100517.99
2024-04-10T19:51:51.462Z,100517.55
2024-04-10T19:54:22.812Z,100517.17
2024-04-10T19:56:55.528Z,100511.48
2024-04-10T19:59:26.993Z,100512.71
2024-04-10T20:01:59.171Z,100518.56
2024-04-10T20:04:30.721Z,100523.23
2024-04-10T20:07:02.240Z,100525.05
2024-04-10T20:09:36.243Z,100527.58
2024-04-10T20:12:08.806Z,100529.89
2024-04-10T20:14:40.259Z,100529.36
2024-04-10T20:17:10.300Z,100529.13
2024-04-10T20:19:42.081Z,100527.50
2024-04-10T20:22:14.457Z,100525.54
2024-04-10T20:24:46.223Z,100525.52
2024-04-10T20:27:17.757Z,100520.84
2024-04-10T20:29:49.353Z,100519.98
2024-04-10T20:32:21.170Z,100516.61
2024-04-10T20:34:56.589Z,100519.83
2024-04-10T20:37:33.613Z,100527.38
2024-04-10T20:40:05.570Z,100528.59
2024-04-10T20:42:37.980Z,100532.96
2024-04-10T20:45:10.298Z,100534.62
2024-04-10T20:47:43.394Z,100543.90
2024-04-10T20:50:15.287Z,100547.04
2024-04-10T20:52:46.834Z,100552.09
2024-04-10T20:55:18.848Z,100551.28
2024-04-10T20:57:50.355Z,100551.15
2024-04-10T21:00:22.028Z,100555.58
2024-04-10T21:02:53.841Z,100557.73
2024-04-10T21:05:32.486Z,100560.02
2024-04-10T21:08:21.815Z,100563.80
2024-04-10T21:11:11.167Z,100568.02
2024-04-10T21:14:00.538Z,100574.52
2024-04-10T21:16:49.843Z,100579.40
2024-04-10T21:19:39.265Z,100576.81
2024-04-10T21:22:28.646Z,100583.84
2024-04-10T21:25:23.135Z,100587.41
2024-04-10T21:28:13.124Z,100591.16
2024-04-10T21:31:02.906Z,100597.12
2024-04-10T21:33:52.438Z,100597.48
2024-04-10T21:36:41.663Z,100604.17
2024-04-10T21:39:31.637Z,100612.44
2024-04-10T21:42:20.820Z,100610.89
2024-04-10T21:45:10.358Z,100618.94
2024-04-10T21:48:00.564Z,100623.06
2024-04-10T21:50:52.238Z,100622.48
2024-04-10T21:53:41.612Z,100621.66
2024-04-10T21:56:31.064Z,100623.43
2024-04-10T21:59:20.601Z,100628.19
2024-04-10T22:02:12.335Z,100632.84
2024-04-10T22:05:03.778Z,100638.25
2024-04-10T22:07:53.294Z,100640.77
2024-04-10T22:10:30.066Z,100641.88
2024-04-10T22:13:01.599Z,100640.80
2024-04-10T22:15:34.740Z,100648.13
2024-04-10T22:18:24.755Z,100654.84
2024-04-10T22:21:14.767Z,100653.50
2024-04-10T22:24:02.637Z,100655.11
2024-04-10T22:26:35.625Z,100655.83
2024-04-10T22:29:08.483Z,100654.66
2024-04-10T22:31:39.829Z,100659.45
2024-04-10T22:34:10.108Z,100661.60
2024-04-10T22:36:41.923Z,100665.85
2024-04-10T22:39:13.933Z,100673.02
2024-04-10T22:41:45.474Z,100671.94
2024-04-10T22:44:19.273Z,100674.23
2024-04-10T22:46:51.828Z,100674.69
2024-04-10T22:49:23.801Z,100677.81
2024-04-10T22:51:58.422Z,100684.32
2024-04-10T22:54:29.772Z,100683.19
2024-04-10T22:57:01.540Z,100687.30
2024-04-10T22:59:33.541Z,100685.12
2024-04-10T23:02:05.157Z,100691.08
2024-04-10T23:04:36.835Z,100692.54
2024-04-10T23:07:35.213Z,100698.73
2024-04-10T23:10:00.650Z,100699.14
2024-04-10T23:12:32.424Z,100698.98
2024-04-10T23:15:02.670Z,100702.10
2024-04-10T23:17:34.434Z,100704.59
2024-04-10T23:20:06.899Z,100703.39
2024-04-10T23:22:38.794Z,100704.77
2024-04-10T23:25:10.556Z,100708.55
2024-04-10T23:27:42.112Z,100707.23
2024-04-10T23:30:14.451Z,100705.14
2024-04-10T23:32:46.428Z,100710.36
2024-04-10T23:35:18.062Z,100715.80
2024-04-10T23:37:50.994Z,100717.41
2024-04-10T23:40:23.162Z,100716.88
2024-04-10T23:42:54.722Z,100719.17
2024-04-10T23:45:27.709Z,100719.30
2024-04-10T23:47:59.329Z,100719.58
2024-04-10T23:50:31.247Z,100720.73
2024-04-10T23:53:03.205Z,100719.75
2024-04-10T23:55:34.777Z,100718.50
2024-04-10T23:58:13.475Z,100714.11
